sensor_id;sensor_type;location;lat;lon;timestamp;temperature;humidity
9816;DHT22;4947;44.526;11.360;2022-08-25T00:01:52;22.60;92.20
9816;DHT22;4947;44.526;11.360;2022-08-25T00:04:20;22.60;92.60
9816;DHT22;4947;44.526;11.360;2022-08-25T00:06:50;22.60;92.50
9816;DHT22;4947;44.526;11.360;2022-08-25T00:09:23;22.60;92.60
9816;DHT22;4947;44.526;11.360;2022-08-25T00:11:52;22.50;92.90
9816;DHT22;4947;44.526;11.360;2022-08-25T00:14:21;22.40;93.00
9816;DHT22;4947;44.526;11.360;2022-08-25T00:16:52;22.30;93.20
9816;DHT22;4947;44.526;11.360;2022-08-25T00:19:22;22.30;93.50
9816;DHT22;4947;44.526;11.360;2022-08-25T00:21:52;22.20;93.80
9816;DHT22;4947;44.526;11.360;2022-08-25T00:24:20;22.20;94.20
9816;DHT22;4947;44.526;11.360;2022-08-25T00:26:51;22.20;94.30
9816;DHT22;4947;44.526;11.360;2022-08-25T00:29:18;22.20;94.00
9816;DHT22;4947;44.526;11.360;2022-08-25T00:31:46;22.20;94.30
9816;DHT22;4947;44.526;11.360;2022-08-25T00:34:16;22.20;94.40
9816;DHT22;4947;44.526;11.360;2022-08-25T00:36:44;22.20;94.30
9816;DHT22;4947;44.526;11.360;2022-08-25T00:39:13;22.20;94.30
9816;DHT22;4947;44.526;11.360;2022-08-25T00:41:42;22.20;94.20
9816;DHT22;4947;44.526;11.360;2022-08-25T00:44:12;22.20;94.00
9816;DHT22;4947;44.526;11.360;2022-08-25T00:46:45;22.20;93.60
9816;DHT22;4947;44.526;11.360;2022-08-25T00:49:15;22.30;93.80
9816;DHT22;4947;44.526;11.360;2022-08-25T00:51:46;22.20;94.00
9816;DHT22;4947;44.526;11.360;2022-08-25T00:54:21;22.30;93.80
9816;DHT22;4947;44.526;11.360;2022-08-25T00:56:49;22.30;93.60
9816;DHT22;4947;44.526;11.360;2022-08-25T00:59:18;22.30;93.90
9816;DHT22;4947;44.526;11.360;2022-08-25T01:01:47;22.20;93.70
9816;DHT22;4947;44.526;11.360;2022-08-25T01:04:16;22.20;94.30
9816;DHT22;4947;44.526;11.360;2022-08-25T01:06:44;22.20;94.50
9816;DHT22;4947;44.526;11.360;2022-08-25T01:09:13;22.10;94.80
9816;DHT22;4947;44.526;11.360;2022-08-25T01:11:43;22.10;94.40
9816;DHT22;4947;44.526;11.360;2022-08-25T01:14:12;22.20;94.60
9816;DHT22;4947;44.526;11.360;2022-08-25T01:16:40;22.20;94.60
9816;DHT22;4947;44.526;11.360;2022-08-25T01:19:09;22.20;94.20
9816;DHT22;4947;44.526;11.360;2022-08-25T01:21:40;22.20;94.50
9816;DHT22;4947;44.526;11.360;2022-08-25T01:24:13;22.20;94.80
9816;DHT22;4947;44.526;11.360;2022-08-25T01:26:42;22.30;94.60
9816;DHT22;4947;44.526;11.360;2022-08-25T01:29:10;22.20;94.60
9816;DHT22;4947;44.526;11.360;2022-08-25T01:31:56;22.10;95.00
9816;DHT22;4947;44.526;11.360;2022-08-25T01:34:24;22.10;95.00
9816;DHT22;4947;44.526;11.360;2022-08-25T01:36:55;22.00;95.30
9816;DHT22;4947;44.526;11.360;2022-08-25T01:39:23;22.00;95.60
9816;DHT22;4947;44.526;11.360;2022-08-25T01:42:31;21.90;96.00
9816;DHT22;4947;44.526;11.360;2022-08-25T01:45:00;21.80;96.10
9816;DHT22;4947;44.526;11.360;2022-08-25T01:47:27;21.80;96.20
9816;DHT22;4947;44.526;11.360;2022-08-25T01:49:54;21.70;96.60
9816;DHT22;4947;44.526;11.360;2022-08-25T01:52:31;21.60;96.90
9816;DHT22;4947;44.526;11.360;2022-08-25T01:54:59;21.60;97.40
9816;DHT22;4947;44.526;11.360;2022-08-25T01:57:28;21.60;97.10
9816;DHT22;4947;44.526;11.360;2022-08-25T01:59:56;21.60;97.10
9816;DHT22;4947;44.526;11.360;2022-08-25T02:02:24;21.60;97.30
9816;DHT22;4947;44.526;11.360;2022-08-25T02:04:51;21.50;97.50
9816;DHT22;4947;44.526;11.360;2022-08-25T02:07:19;21.50;97.70
9816;DHT22;4947;44.526;11.360;2022-08-25T02:09:48;21.50;97.30
9816;DHT22;4947;44.526;11.360;2022-08-25T02:12:15;21.40;97.70
9816;DHT22;4947;44.526;11.360;2022-08-25T02:14:43;21.40;97.70
9816;DHT22;4947;44.526;11.360;2022-08-25T02:17:10;21.30;97.90
9816;DHT22;4947;44.526;11.360;2022-08-25T02:19:38;21.30;97.90
9816;DHT22;4947;44.526;11.360;2022-08-25T02:22:06;21.30;98.10
9816;DHT22;4947;44.526;11.360;2022-08-25T02:24:34;21.30;98.30
9816;DHT22;4947;44.526;11.360;2022-08-25T02:27:03;21.30;98.60
9816;DHT22;4947;44.526;11.360;2022-08-25T02:29:34;21.30;98.90
9816;DHT22;4947;44.526;11.360;2022-08-25T02:32:02;21.30;98.80
9816;DHT22;4947;44.526;11.360;2022-08-25T02:34:30;21.20;98.90
9816;DHT22;4947;44.526;11.360;2022-08-25T02:36:58;21.20;98.40
9816;DHT22;4947;44.526;11.360;2022-08-25T02:39:25;21.30;98.60
9816;DHT22;4947;44.526;11.360;2022-08-25T02:41:53;21.30;98.50
9816;DHT22;4947;44.526;11.360;2022-08-25T02:44:22;21.30;98.40
9816;DHT22;4947;44.526;11.360;2022-08-25T02:46:49;21.30;98.50
9816;DHT22;4947;44.526;11.360;2022-08-25T02:49:17;21.20;98.60
9816;DHT22;4947;44.526;11.360;2022-08-25T02:51:45;21.20;98.90
9816;DHT22;4947;44.526;11.360;2022-08-25T02:54:12;21.10;98.90
9816;DHT22;4947;44.526;11.360;2022-08-25T02:56:40;21.10;99.00
9816;DHT22;4947;44.526;11.360;2022-08-25T02:59:08;21.10;98.90
9816;DHT22;4947;44.526;11.360;2022-08-25T03:01:37;21.10;99.20
9816;DHT22;4947;44.526;11.360;2022-08-25T03:04:05;21.10;99.30
9816;DHT22;4947;44.526;11.360;2022-08-25T03:06:33;21.10;99.50
9816;DHT22;4947;44.526;11.360;2022-08-25T03:09:00;21.00;99.40
9816;DHT22;4947;44.526;11.360;2022-08-25T03:11:28;21.00;99.30
9816;DHT22;4947;44.526;11.360;2022-08-25T03:13:56;21.10;99.60
9816;DHT22;4947;44.526;11.360;2022-08-25T03:16:24;21.10;99.30
9816;DHT22;4947;44.526;11.360;2022-08-25T03:18:53;21.10;99.30
9816;DHT22;4947;44.526;11.360;2022-08-25T03:21:21;21.10;99.50
9816;DHT22;4947;44.526;11.360;2022-08-25T03:23:48;21.00;99.60
9816;DHT22;4947;44.526;11.360;2022-08-25T03:26:16;21.00;99.40
9816;DHT22;4947;44.526;11.360;2022-08-25T03:29:02;21.00;99.60
9816;DHT22;4947;44.526;11.360;2022-08-25T03:31:32;21.00;99.70
9816;DHT22;4947;44.526;11.360;2022-08-25T03:34:00;21.00;99.50
9816;DHT22;4947;44.526;11.360;2022-08-25T03:36:28;21.00;99.40
9816;DHT22;4947;44.526;11.360;2022-08-25T03:38:55;21.00;99.40
9816;DHT22;4947;44.526;11.360;2022-08-25T03:41:29;21.00;99.50
9816;DHT22;4947;44.526;11.360;2022-08-25T03:43:57;21.00;99.70
9816;DHT22;4947;44.526;11.360;2022-08-25T03:46:26;21.00;99.90
9816;DHT22;4947;44.526;11.360;2022-08-25T03:48:54;21.00;99.90
9816;DHT22;4947;44.526;11.360;2022-08-25T03:51:27;20.90;99.90
9816;DHT22;4947;44.526;11.360;2022-08-25T03:53:55;20.90;99.90
9816;DHT22;4947;44.526;11.360;2022-08-25T03:56:22;21.00;99.90
9816;DHT22;4947;44.526;11.360;2022-08-25T03:58:51;20.90;99.90
9816;DHT22;4947;44.526;11.360;2022-08-25T04:01:19;20.90;99.90
9816;DHT22;4947;44.526;11.360;2022-08-25T04:03:47;20.90;99.90
9816;DHT22;4947;44.526;11.360;2022-08-25T04:06:16;20.90;99.90
9816;DHT22;4947;44.526;11.360;2022-08-25T04:08:46;20.80;99.90
9816;DHT22;4947;44.526;11.360;2022-08-25T04:11:16;20.90;99.90
9816;DHT22;4947;44.526;11.360;2022-08-25T04:13:45;20.80;99.90
9816;DHT22;4947;44.526;11.360;2022-08-25T04:19:30;20.60;99.90
9816;DHT22;4947;44.526;11.360;2022-08-25T04:21:58;20.60;99.90
9816;DHT22;4947;44.526;11.360;2022-08-25T04:24:27;20.60;99.90
9816;DHT22;4947;44.526;11.360;2022-08-25T04:26:55;20.60;99.90
9816;DHT22;4947;44.526;11.360;2022-08-25T04:29:24;20.50;99.90
9816;DHT22;4947;44.526;11.360;2022-08-25T04:31:53;20.50;99.90
9816;DHT22;4947;44.526;11.360;2022-08-25T04:34:23;20.50;99.90
9816;DHT22;4947;44.526;11.360;2022-08-25T04:36:51;20.40;99.90
9816;DHT22;4947;44.526;11.360;2022-08-25T04:39:19;20.40;99.90
9816;DHT22;4947;44.526;11.360;2022-08-25T04:41:49;20.40;99.90
9816;DHT22;4947;44.526;11.360;2022-08-25T04:44:17;20.40;99.90
9816;DHT22;4947;44.526;11.360;2022-08-25T04:46:45;20.30;99.90
9816;DHT22;4947;44.526;11.360;2022-08-25T04:49:12;20.40;99.90
9816;DHT22;4947;44.526;11.360;2022-08-25T04:51:40;20.40;99.90
9816;DHT22;4947;44.526;11.360;2022-08-25T04:54:10;20.40;99.90
9816;DHT22;4947;44.526;11.360;2022-08-25T04:56:39;20.40;99.90
9816;DHT22;4947;44.526;11.360;2022-08-25T04:59:10;20.40;99.90
9816;DHT22;4947;44.526;11.360;2022-08-25T05:01:39;20.40;99.90
9816;DHT22;4947;44.526;11.360;2022-08-25T05:04:09;20.50;99.90
9816;DHT22;4947;44.526;11.360;2022-08-25T05:06:37;20.50;99.90
9816;DHT22;4947;44.526;11.360;2022-08-25T05:09:04;20.50;99.90
9816;DHT22;4947;44.526;11.360;2022-08-25T05:11:32;20.60;99.90
9816;DHT22;4947;44.526;11.360;2022-08-25T05:14:00;20.60;99.90
9816;DHT22;4947;44.526;11.360;2022-08-25T05:16:30;20.60;99.90
9816;DHT22;4947;44.526;11.360;2022-08-25T05:18:57;20.70;99.90
9816;DHT22;4947;44.526;11.360;2022-08-25T05:21:26;20.80;99.90
9816;DHT22;4947;44.526;11.360;2022-08-25T05:27:15;20.90;99.90
9816;DHT22;4947;44.526;11.360;2022-08-25T05:29:43;21.00;99.90
9816;DHT22;4947;44.526;11.360;2022-08-25T05:32:15;21.00;99.70
9816;DHT22;4947;44.526;11.360;2022-08-25T05:34:43;21.00;99.70
9816;DHT22;4947;44.526;11.360;2022-08-25T05:37:10;21.10;99.10
9816;DHT22;4947;44.526;11.360;2022-08-25T05:39:38;21.20;99.00
9816;DHT22;4947;44.526;11.360;2022-08-25T05:42:06;21.20;98.90
9816;DHT22;4947;44.526;11.360;2022-08-25T05:44:34;21.20;98.60
9816;DHT22;4947;44.526;11.360;2022-08-25T05:47:01;21.30;98.90
9816;DHT22;4947;44.526;11.360;2022-08-25T05:49:29;21.40;98.30
9816;DHT22;4947;44.526;11.360;2022-08-25T05:51:57;21.50;98.00
9816;DHT22;4947;44.526;11.360;2022-08-25T05:54:25;21.60;98.30
9816;DHT22;4947;44.526;11.360;2022-08-25T05:56:52;21.70;97.50
9816;DHT22;4947;44.526;11.360;2022-08-25T06:02:31;22.20;95.70
9816;DHT22;4947;44.526;11.360;2022-08-25T06:05:11;22.50;95.00
9816;DHT22;4947;44.526;11.360;2022-08-25T06:07:43;22.60;94.60
9816;DHT22;4947;44.526;11.360;2022-08-25T06:10:12;22.70;94.30
9816;DHT22;4947;44.526;11.360;2022-08-25T06:12:41;22.80;93.70
9816;DHT22;4947;44.526;11.360;2022-08-25T06:15:11;22.80;93.70
9816;DHT22;4947;44.526;11.360;2022-08-25T06:17:39;22.90;93.60
9816;DHT22;4947;44.526;11.360;2022-08-25T06:20:15;23.00;92.30
9816;DHT22;4947;44.526;11.360;2022-08-25T06:22:43;23.20;92.40
9816;DHT22;4947;44.526;11.360;2022-08-25T06:25:12;23.50;91.50
9816;DHT22;4947;44.526;11.360;2022-08-25T06:27:42;23.60;90.60
9816;DHT22;4947;44.526;11.360;2022-08-25T06:30:14;23.80;90.40
9816;DHT22;4947;44.526;11.360;2022-08-25T06:32:43;23.80;90.20
9816;DHT22;4947;44.526;11.360;2022-08-25T06:38:34;23.90;89.90
9816;DHT22;4947;44.526;11.360;2022-08-25T06:41:03;24.10;88.70
9816;DHT22;4947;44.526;11.360;2022-08-25T06:43:31;24.10;88.10
9816;DHT22;4947;44.526;11.360;2022-08-25T06:46:07;24.20;89.90
9816;DHT22;4947;44.526;11.360;2022-08-25T06:48:35;24.40;87.60
9816;DHT22;4947;44.526;11.360;2022-08-25T06:51:05;24.30;90.10
9816;DHT22;4947;44.526;11.360;2022-08-25T06:53:35;24.50;87.90
9816;DHT22;4947;44.526;11.360;2022-08-25T06:56:03;24.70;86.10
9816;DHT22;4947;44.526;11.360;2022-08-25T06:58:31;25.00;83.90
9816;DHT22;4947;44.526;11.360;2022-08-25T07:01:06;25.50;82.30
9816;DHT22;4947;44.526;11.360;2022-08-25T07:03:34;26.20;79.00
9816;DHT22;4947;44.526;11.360;2022-08-25T07:06:02;26.90;78.10
9816;DHT22;4947;44.526;11.360;2022-08-25T07:08:29;27.90;72.60
9816;DHT22;4947;44.526;11.360;2022-08-25T07:11:03;28.50;69.20
9816;DHT22;4947;44.526;11.360;2022-08-25T07:13:31;29.10;65.70
9816;DHT22;4947;44.526;11.360;2022-08-25T07:15:59;29.80;64.30
9816;DHT22;4947;44.526;11.360;2022-08-25T07:18:26;29.90;63.20
9816;DHT22;4947;44.526;11.360;2022-08-25T07:20:54;30.20;62.30
9816;DHT22;4947;44.526;11.360;2022-08-25T07:23:22;30.40;61.40
9816;DHT22;4947;44.526;11.360;2022-08-25T07:25:50;30.80;60.20
9816;DHT22;4947;44.526;11.360;2022-08-25T07:28:21;30.90;60.40
9816;DHT22;4947;44.526;11.360;2022-08-25T07:30:49;30.90;59.60
9816;DHT22;4947;44.526;11.360;2022-08-25T07:33:17;30.80;59.60
9816;DHT22;4947;44.526;11.360;2022-08-25T07:35:45;30.80;59.50
9816;DHT22;4947;44.526;11.360;2022-08-25T07:38:11;31.10;59.50
9816;DHT22;4947;44.526;11.360;2022-08-25T07:40:39;31.30;58.50
9816;DHT22;4947;44.526;11.360;2022-08-25T07:43:07;31.20;58.10
9816;DHT22;4947;44.526;11.360;2022-08-25T07:45:37;31.30;58.90
9816;DHT22;4947;44.526;11.360;2022-08-25T07:48:07;31.20;58.50
9816;DHT22;4947;44.526;11.360;2022-08-25T07:50:36;31.90;56.90
9816;DHT22;4947;44.526;11.360;2022-08-25T07:53:05;32.30;55.60
9816;DHT22;4947;44.526;11.360;2022-08-25T07:55:33;32.30;55.50
9816;DHT22;4947;44.526;11.360;2022-08-25T07:58:04;33.00;54.60
9816;DHT22;4947;44.526;11.360;2022-08-25T08:00:33;32.50;54.80
9816;DHT22;4947;44.526;11.360;2022-08-25T08:03:04;32.30;55.70
9816;DHT22;4947;44.526;11.360;2022-08-25T08:05:32;32.50;55.50
9816;DHT22;4947;44.526;11.360;2022-08-25T08:08:00;33.00;54.10
9816;DHT22;4947;44.526;11.360;2022-08-25T08:10:28;33.40;54.00
9816;DHT22;4947;44.526;11.360;2022-08-25T08:12:56;33.40;52.70
9816;DHT22;4947;44.526;11.360;2022-08-25T08:15:24;33.60;52.90
9816;DHT22;4947;44.526;11.360;2022-08-25T08:21:17;33.80;52.80
9816;DHT22;4947;44.526;11.360;2022-08-25T08:23:45;33.90;52.00
9816;DHT22;4947;44.526;11.360;2022-08-25T08:26:13;34.20;51.80
9816;DHT22;4947;44.526;11.360;2022-08-25T08:28:43;34.70;52.10
9816;DHT22;4947;44.526;11.360;2022-08-25T08:31:11;34.80;52.30
9816;DHT22;4947;44.526;11.360;2022-08-25T08:33:39;35.40;52.10
9816;DHT22;4947;44.526;11.360;2022-08-25T08:36:10;35.60;50.90
9816;DHT22;4947;44.526;11.360;2022-08-25T08:38:40;35.60;50.80
9816;DHT22;4947;44.526;11.360;2022-08-25T08:41:20;35.90;50.00
9816;DHT22;4947;44.526;11.360;2022-08-25T08:44:11;36.60;50.40
9816;DHT22;4947;44.526;11.360;2022-08-25T08:46:50;36.40;49.50
9816;DHT22;4947;44.526;11.360;2022-08-25T08:49:26;36.50;49.90
9816;DHT22;4947;44.526;11.360;2022-08-25T08:55:25;36.70;49.20
9816;DHT22;4947;44.526;11.360;2022-08-25T08:57:56;36.70;49.10
9816;DHT22;4947;44.526;11.360;2022-08-25T09:00:25;36.80;49.70
9816;DHT22;4947;44.526;11.360;2022-08-25T09:02:57;37.10;48.40
9816;DHT22;4947;44.526;11.360;2022-08-25T09:05:27;36.80;48.40
9816;DHT22;4947;44.526;11.360;2022-08-25T09:07:58;34.60;51.70
9816;DHT22;4947;44.526;11.360;2022-08-25T09:10:40;34.00;54.70
9816;DHT22;4947;44.526;11.360;2022-08-25T09:13:18;34.90;52.40
9816;DHT22;4947;44.526;11.360;2022-08-25T09:15:56;35.20;52.00
9816;DHT22;4947;44.526;11.360;2022-08-25T09:18:49;33.80;53.70
9816;DHT22;4947;44.526;11.360;2022-08-25T09:21:25;33.90;55.50
9816;DHT22;4947;44.526;11.360;2022-08-25T09:24:27;33.80;56.50
9816;DHT22;4947;44.526;11.360;2022-08-25T09:27:34;35.20;53.90
9816;DHT22;4947;44.526;11.360;2022-08-25T09:30:05;36.80;51.90
9816;DHT22;4947;44.526;11.360;2022-08-25T09:32:44;37.40;48.90
9816;DHT22;4947;44.526;11.360;2022-08-25T09:35:17;37.20;47.80
9816;DHT22;4947;44.526;11.360;2022-08-25T09:37:55;36.90;49.00
9816;DHT22;4947;44.526;11.360;2022-08-25T09:40:23;35.50;52.30
9816;DHT22;4947;44.526;11.360;2022-08-25T09:42:55;36.30;50.80
9816;DHT22;4947;44.526;11.360;2022-08-25T09:45:32;36.60;50.30
9816;DHT22;4947;44.526;11.360;2022-08-25T09:48:00;36.50;49.40
9816;DHT22;4947;44.526;11.360;2022-08-25T09:50:30;36.40;49.80
9816;DHT22;4947;44.526;11.360;2022-08-25T09:53:11;36.90;47.60
9816;DHT22;4947;44.526;11.360;2022-08-25T09:55:40;36.90;48.30
9816;DHT22;4947;44.526;11.360;2022-08-25T09:58:17;37.10;49.70
9816;DHT22;4947;44.526;11.360;2022-08-25T10:04:07;36.90;47.50
9816;DHT22;4947;44.526;11.360;2022-08-25T10:06:44;36.70;49.40
9816;DHT22;4947;44.526;11.360;2022-08-25T10:09:24;35.10;51.30
9816;DHT22;4947;44.526;11.360;2022-08-25T10:11:55;34.30;53.60
9816;DHT22;4947;44.526;11.360;2022-08-25T10:14:32;33.30;53.60
9816;DHT22;4947;44.526;11.360;2022-08-25T10:17:14;33.30;56.60
9816;DHT22;4947;44.526;11.360;2022-08-25T10:19:42;32.80;55.70
9816;DHT22;4947;44.526;11.360;2022-08-25T10:22:20;32.70;56.10
9816;DHT22;4947;44.526;11.360;2022-08-25T10:24:53;32.80;56.60
9816;DHT22;4947;44.526;11.360;2022-08-25T10:27:26;32.70;56.40
9816;DHT22;4947;44.526;11.360;2022-08-25T10:30:14;32.50;55.60
9816;DHT22;4947;44.526;11.360;2022-08-25T10:32:59;32.30;54.40
9816;DHT22;4947;44.526;11.360;2022-08-25T10:38:53;32.00;56.90
9816;DHT22;4947;44.526;11.360;2022-08-25T10:41:35;31.90;56.70
9816;DHT22;4947;44.526;11.360;2022-08-25T10:44:17;32.10;56.90
9816;DHT22;4947;44.526;11.360;2022-08-25T10:47:32;31.90;59.10
9816;DHT22;4947;44.526;11.360;2022-08-25T10:50:09;31.60;57.10
9816;DHT22;4947;44.526;11.360;2022-08-25T10:52:55;31.50;57.50
9816;DHT22;4947;44.526;11.360;2022-08-25T10:55:32;31.30;58.70
9816;DHT22;4947;44.526;11.360;2022-08-25T10:58:09;31.40;58.80
9816;DHT22;4947;44.526;11.360;2022-08-25T11:00:46;31.50;58.40
9816;DHT22;4947;44.526;11.360;2022-08-25T11:03:29;31.50;57.90
9816;DHT22;4947;44.526;11.360;2022-08-25T11:06:03;31.40;58.00
9816;DHT22;4947;44.526;11.360;2022-08-25T11:08:36;31.50;58.30
9816;DHT22;4947;44.526;11.360;2022-08-25T11:11:09;31.50;57.80
9816;DHT22;4947;44.526;11.360;2022-08-25T11:13:43;31.50;57.30
9816;DHT22;4947;44.526;11.360;2022-08-25T11:16:16;31.60;58.60
9816;DHT22;4947;44.526;11.360;2022-08-25T11:18:50;31.70;56.70
9816;DHT22;4947;44.526;11.360;2022-08-25T11:21:22;31.90;58.10
9816;DHT22;4947;44.526;11.360;2022-08-25T11:23:57;32.10;57.40
9816;DHT22;4947;44.526;11.360;2022-08-25T11:26:27;32.30;55.70
9816;DHT22;4947;44.526;11.360;2022-08-25T11:29:02;32.20;56.20
9816;DHT22;4947;44.526;11.360;2022-08-25T11:31:37;32.30;57.10
9816;DHT22;4947;44.526;11.360;2022-08-25T11:34:10;32.10;56.10
9816;DHT22;4947;44.526;11.360;2022-08-25T11:36:42;31.80;56.60
9816;DHT22;4947;44.526;11.360;2022-08-25T11:39:15;31.70;56.90
9816;DHT22;4947;44.526;11.360;2022-08-25T11:41:56;31.70;56.90
9816;DHT22;4947;44.526;11.360;2022-08-25T11:44:45;31.90;58.90
9816;DHT22;4947;44.526;11.360;2022-08-25T11:50:27;31.90;55.80
9816;DHT22;4947;44.526;11.360;2022-08-25T11:52:56;31.60;54.50
9816;DHT22;4947;44.526;11.360;2022-08-25T11:55:42;31.60;55.20
9816;DHT22;4947;44.526;11.360;2022-08-25T11:58:27;31.70;56.40
9816;DHT22;4947;44.526;11.360;2022-08-25T12:04:12;31.70;57.20
9816;DHT22;4947;44.526;11.360;2022-08-25T12:10:17;31.90;57.70
9816;DHT22;4947;44.526;11.360;2022-08-25T12:13:00;31.90;56.10
9816;DHT22;4947;44.526;11.360;2022-08-25T12:15:33;31.90;57.20
9816;DHT22;4947;44.526;11.360;2022-08-25T12:18:41;31.80;57.50
9816;DHT22;4947;44.526;11.360;2022-08-25T12:24:15;31.70;59.10
9816;DHT22;4947;44.526;11.360;2022-08-25T12:26:53;31.70;57.80
9816;DHT22;4947;44.526;11.360;2022-08-25T12:29:27;31.80;57.80
9816;DHT22;4947;44.526;11.360;2022-08-25T12:32:12;31.90;57.80
9816;DHT22;4947;44.526;11.360;2022-08-25T12:35:06;31.90;57.40
9816;DHT22;4947;44.526;11.360;2022-08-25T12:37:55;31.80;57.70
9816;DHT22;4947;44.526;11.360;2022-08-25T12:40:27;32.10;56.80
9816;DHT22;4947;44.526;11.360;2022-08-25T12:43:07;32.10;58.10
9816;DHT22;4947;44.526;11.360;2022-08-25T12:45:46;32.20;58.30
9816;DHT22;4947;44.526;11.360;2022-08-25T12:48:52;32.20;56.60
9816;DHT22;4947;44.526;11.360;2022-08-25T12:51:22;32.00;55.90
9816;DHT22;4947;44.526;11.360;2022-08-25T12:53:52;32.00;56.20
9816;DHT22;4947;44.526;11.360;2022-08-25T12:56:33;32.00;56.10
9816;DHT22;4947;44.526;11.360;2022-08-25T12:59:12;32.10;55.90
9816;DHT22;4947;44.526;11.360;2022-08-25T13:01:56;32.10;55.30
9816;DHT22;4947;44.526;11.360;2022-08-25T13:04:49;32.00;55.80
9816;DHT22;4947;44.526;11.360;2022-08-25T13:07:35;32.10;55.90
9816;DHT22;4947;44.526;11.360;2022-08-25T13:10:32;32.10;55.80
9816;DHT22;4947;44.526;11.360;2022-08-25T13:13:06;32.00;56.50
9816;DHT22;4947;44.526;11.360;2022-08-25T13:15:40;32.00;55.50
9816;DHT22;4947;44.526;11.360;2022-08-25T13:18:29;31.80;56.80
9816;DHT22;4947;44.526;11.360;2022-08-25T13:21:04;31.90;56.50
9816;DHT22;4947;44.526;11.360;2022-08-25T13:23:36;31.80;56.10
9816;DHT22;4947;44.526;11.360;2022-08-25T13:26:04;32.00;56.00
9816;DHT22;4947;44.526;11.360;2022-08-25T13:28:35;32.00;56.50
9816;DHT22;4947;44.526;11.360;2022-08-25T13:31:08;32.10;56.90
9816;DHT22;4947;44.526;11.360;2022-08-25T13:33:50;32.10;56.00
9816;DHT22;4947;44.526;11.360;2022-08-25T13:36:22;32.20;55.70
9816;DHT22;4947;44.526;11.360;2022-08-25T13:39:12;32.40;56.20
9816;DHT22;4947;44.526;11.360;2022-08-25T13:41:44;32.40;55.30
9816;DHT22;4947;44.526;11.360;2022-08-25T13:44:12;32.30;56.00
9816;DHT22;4947;44.526;11.360;2022-08-25T13:46:42;32.00;56.10
9816;DHT22;4947;44.526;11.360;2022-08-25T13:49:12;31.70;56.60
9816;DHT22;4947;44.526;11.360;2022-08-25T13:51:54;31.60;57.70
9816;DHT22;4947;44.526;11.360;2022-08-25T13:54:29;31.50;57.60
9816;DHT22;4947;44.526;11.360;2022-08-25T13:57:12;31.30;58.20
9816;DHT22;4947;44.526;11.360;2022-08-25T13:59:42;31.20;58.10
9816;DHT22;4947;44.526;11.360;2022-08-25T14:02:12;31.30;58.90
9816;DHT22;4947;44.526;11.360;2022-08-25T14:04:48;31.30;58.50
9816;DHT22;4947;44.526;11.360;2022-08-25T14:07:26;31.40;57.80
9816;DHT22;4947;44.526;11.360;2022-08-25T14:09:56;31.40;59.10
9816;DHT22;4947;44.526;11.360;2022-08-25T14:12:33;31.30;59.40
9816;DHT22;4947;44.526;11.360;2022-08-25T14:15:06;31.30;58.20
9816;DHT22;4947;44.526;11.360;2022-08-25T14:17:37;31.20;59.60
9816;DHT22;4947;44.526;11.360;2022-08-25T14:20:15;31.20;60.40
9816;DHT22;4947;44.526;11.360;2022-08-25T14:22:43;31.40;59.00
9816;DHT22;4947;44.526;11.360;2022-08-25T14:25:10;31.60;59.40
9816;DHT22;4947;44.526;11.360;2022-08-25T14:27:41;31.70;57.60
9816;DHT22;4947;44.526;11.360;2022-08-25T14:30:10;31.70;57.10
9816;DHT22;4947;44.526;11.360;2022-08-25T14:32:42;31.50;57.30
9816;DHT22;4947;44.526;11.360;2022-08-25T14:35:09;31.60;57.40
9816;DHT22;4947;44.526;11.360;2022-08-25T14:37:36;31.70;57.30
9816;DHT22;4947;44.526;11.360;2022-08-25T14:40:04;31.70;58.00
9816;DHT22;4947;44.526;11.360;2022-08-25T14:42:32;31.70;58.30
9816;DHT22;4947;44.526;11.360;2022-08-25T14:45:00;31.70;56.60
9816;DHT22;4947;44.526;11.360;2022-08-25T14:47:28;31.80;56.90
9816;DHT22;4947;44.526;11.360;2022-08-25T14:49:58;31.70;57.90
9816;DHT22;4947;44.526;11.360;2022-08-25T14:52:27;31.60;57.50
9816;DHT22;4947;44.526;11.360;2022-08-25T14:54:55;31.70;57.50
9816;DHT22;4947;44.526;11.360;2022-08-25T14:57:23;31.80;58.20
9816;DHT22;4947;44.526;11.360;2022-08-25T14:59:52;31.90;57.30
9816;DHT22;4947;44.526;11.360;2022-08-25T15:02:21;31.90;57.60
9816;DHT22;4947;44.526;11.360;2022-08-25T15:04:51;31.90;57.10
9816;DHT22;4947;44.526;11.360;2022-08-25T15:07:21;31.80;57.50
9816;DHT22;4947;44.526;11.360;2022-08-25T15:10:07;31.70;57.20
9816;DHT22;4947;44.526;11.360;2022-08-25T15:12:35;31.50;58.00
9816;DHT22;4947;44.526;11.360;2022-08-25T15:15:03;31.40;58.00
9816;DHT22;4947;44.526;11.360;2022-08-25T15:17:31;31.30;57.60
9816;DHT22;4947;44.526;11.360;2022-08-25T15:19:59;31.00;58.40
9816;DHT22;4947;44.526;11.360;2022-08-25T15:22:28;31.00;59.40
9816;DHT22;4947;44.526;11.360;2022-08-25T15:24:56;31.00;59.50
9816;DHT22;4947;44.526;11.360;2022-08-25T15:27:23;30.90;59.90
9816;DHT22;4947;44.526;11.360;2022-08-25T15:29:51;30.90;59.60
9816;DHT22;4947;44.526;11.360;2022-08-25T15:32:19;31.00;59.90
9816;DHT22;4947;44.526;11.360;2022-08-25T15:34:46;30.90;59.50
9816;DHT22;4947;44.526;11.360;2022-08-25T15:37:15;31.00;58.90
9816;DHT22;4947;44.526;11.360;2022-08-25T15:39:45;30.90;58.70
9816;DHT22;4947;44.526;11.360;2022-08-25T15:42:13;30.90;59.10
9816;DHT22;4947;44.526;11.360;2022-08-25T15:44:41;30.90;59.90
9816;DHT22;4947;44.526;11.360;2022-08-25T15:47:09;31.00;60.40
9816;DHT22;4947;44.526;11.360;2022-08-25T15:49:37;31.00;62.20
9816;DHT22;4947;44.526;11.360;2022-08-25T15:52:05;30.90;61.10
9816;DHT22;4947;44.526;11.360;2022-08-25T15:54:33;30.80;60.90
9816;DHT22;4947;44.526;11.360;2022-08-25T15:57:02;31.00;61.30
9816;DHT22;4947;44.526;11.360;2022-08-25T15:59:30;31.00;61.40
9816;DHT22;4947;44.526;11.360;2022-08-25T16:01:58;31.00;60.50
9816;DHT22;4947;44.526;11.360;2022-08-25T16:04:27;31.00;60.70
9816;DHT22;4947;44.526;11.360;2022-08-25T16:06:54;31.10;60.10
9816;DHT22;4947;44.526;11.360;2022-08-25T16:09:23;31.10;59.90
9816;DHT22;4947;44.526;11.360;2022-08-25T16:11:51;31.10;59.70
9816;DHT22;4947;44.526;11.360;2022-08-25T16:14:20;31.10;59.60
9816;DHT22;4947;44.526;11.360;2022-08-25T16:16:47;31.10;60.10
9816;DHT22;4947;44.526;11.360;2022-08-25T16:19:15;31.00;59.40
9816;DHT22;4947;44.526;11.360;2022-08-25T16:21:42;30.90;60.80
9816;DHT22;4947;44.526;11.360;2022-08-25T16:24:10;30.90;61.00
9816;DHT22;4947;44.526;11.360;2022-08-25T16:26:38;30.90;60.70
9816;DHT22;4947;44.526;11.360;2022-08-25T16:29:07;30.90;60.30
9816;DHT22;4947;44.526;11.360;2022-08-25T16:31:38;30.90;60.50
9816;DHT22;4947;44.526;11.360;2022-08-25T16:34:05;30.90;59.50
9816;DHT22;4947;44.526;11.360;2022-08-25T16:36:33;30.90;59.70
9816;DHT22;4947;44.526;11.360;2022-08-25T16:39:01;30.80;60.40
9816;DHT22;4947;44.526;11.360;2022-08-25T16:41:30;30.80;59.60
9816;DHT22;4947;44.526;11.360;2022-08-25T16:44:00;30.80;59.40
9816;DHT22;4947;44.526;11.360;2022-08-25T16:46:27;30.80;59.50
9816;DHT22;4947;44.526;11.360;2022-08-25T16:48:58;30.70;60.10
9816;DHT22;4947;44.526;11.360;2022-08-25T16:51:26;30.70;58.80
9816;DHT22;4947;44.526;11.360;2022-08-25T16:53:54;30.70;59.00